Terminal Aerodrome Forecast
Issued by NWS Burlington, VT

Home | Current Version | Previous Version | Text Only | Print | Product List | Glossary On
Versions: 1 2 3 4 5 6 7 8 9 10 11 12 13 14 15 16 17 18 19 20 21 22 23 24 25
000
FTUS41 KBTV 022102 AAC
TAFBTV
TAF AMD
KBTV 022102Z 0221/0318 34014KT 6SM -RA BR SCT015 OVC035
      TEMPO 0221/0301 5SM -RA BR OVC030
     FM030100 31012KT P6SM VCSH OVC030
     FM031400 33010KT P6SM VCSH OVC035=

USA.gov is the U.S. government's official web portal to all federal, state and local government web resources and services.